createdAt,value
2018-11-25T00:00:08.016Z,3.7
2018-11-25T00:05:08.251Z,3.7
2018-11-25T00:10:10.622Z,3.7
2018-11-25T00:15:05.863Z,3.7
2018-11-25T00:20:20.898Z,3.7
2018-11-25T00:25:05.052Z,3.7
2018-11-25T00:30:22.636Z,3.7
2018-11-25T00:35:12.999Z,3.7
2018-11-25T00:40:10.701Z,3.7
2018-11-25T00:45:17.622Z,3.7
2018-11-25T00:50:23.216Z,3.7
2018-11-25T00:55:08.326Z,3.7
2018-11-25T01:00:02.616Z,3.8
2018-11-25T01:05:08.085Z,3.8
2018-11-25T01:10:10.470Z,3.6
2018-11-25T01:15:03.165Z,3.8
2018-11-25T01:20:10.202Z,3.8
2018-11-25T01:25:02.770Z,3.8
2018-11-25T01:35:03.274Z,3.8
2018-11-25T01:40:10.631Z,3.7
2018-11-25T01:45:05.794Z,3.7
2018-11-25T01:50:03.092Z,3.7
2018-11-25T01:55:04.902Z,3.7
2018-11-25T02:00:03.285Z,3.7
2018-11-25T02:05:27.786Z,3.7
2018-11-25T02:10:15.251Z,3.7
2018-11-25T02:15:28.136Z,3.7
2018-11-25T02:20:05.023Z,3.8
2018-11-25T02:25:02.757Z,3.8
2018-11-25T02:30:05.597Z,3.8
2018-11-25T02:35:08.403Z,3.7
2018-11-25T02:40:08.243Z,3.7
2018-11-25T02:45:04.947Z,3.8
2018-11-25T02:50:05.769Z,3.8
2018-11-25T02:55:10.128Z,3.8
2018-11-25T03:00:17.603Z,3.8
2018-11-25T03:05:07.786Z,3.8
2018-11-25T03:10:02.588Z,3.8
2018-11-25T03:15:05.488Z,3.8
2018-11-25T03:20:05.441Z,3.8
2018-11-25T03:25:03.174Z,3.8
2018-11-25T03:30:05.054Z,3.8
2018-11-25T03:35:05.369Z,3.8
2018-11-25T03:40:36.136Z,3.9
2018-11-25T03:45:12.618Z,3.9
2018-11-25T03:50:13.122Z,3.9
2018-11-25T03:55:30.236Z,3.9
2018-11-25T04:00:20.292Z,3.9
2018-11-25T04:05:05.478Z,3.8
2018-11-25T04:10:21.078Z,4
2018-11-25T04:15:05.259Z,4
2018-11-25T04:20:28.028Z,4
2018-11-25T04:25:08.413Z,3.9
2018-11-25T04:30:02.723Z,3.9
2018-11-25T04:35:10.711Z,4
2018-11-25T04:40:10.313Z,4
2018-11-25T04:45:10.601Z,4
2018-11-25T04:50:02.938Z,4
2018-11-25T04:55:08.379Z,4
2018-11-25T05:00:02.745Z,4
2018-11-25T05:05:05.614Z,4.1
2018-11-25T05:10:02.450Z,4.1
2018-11-25T05:15:05.312Z,4.1
2018-11-25T05:20:05.346Z,4.1
2018-11-25T05:25:05.530Z,4.1
2018-11-25T05:30:05.372Z,4.1
2018-11-25T05:35:15.761Z,4.1
2018-11-25T05:40:07.637Z,4.1
2018-11-25T05:45:05.436Z,4.1
2018-11-25T05:50:10.365Z,4.1
2018-11-25T05:55:10.708Z,4.1
2018-11-25T06:00:08.097Z,4.1
2018-11-25T06:05:04.938Z,4.1
2018-11-25T06:10:20.457Z,4.1
2018-11-25T06:15:05.611Z,4.1
2018-11-25T06:20:08.067Z,4.1
2018-11-25T06:25:17.606Z,4.1
2018-11-25T06:30:05.508Z,4.1
2018-11-25T06:35:05.850Z,4.1
2018-11-25T06:40:07.761Z,4.1
2018-11-25T06:45:15.753Z,4.1
2018-11-25T06:55:05.441Z,4.1
2018-11-25T07:00:02.822Z,4.1
2018-11-25T07:05:03.168Z,4.1
2018-11-25T07:10:08.125Z,4.1
2018-11-25T07:15:03.378Z,4.1
2018-11-25T07:20:02.819Z,4.1
2018-11-25T07:25:23.454Z,4.2
2018-11-25T07:30:25.652Z,4.2
2018-11-25T07:35:25.736Z,4.2
2018-11-25T07:40:15.292Z,4.2
2018-11-25T07:45:15.585Z,4.2
2018-11-25T07:50:25.722Z,4.2
2018-11-25T07:55:13.197Z,4.3
2018-11-25T08:00:25.254Z,4.3
2018-11-25T08:05:02.703Z,4.3
2018-11-25T08:10:05.052Z,4.5
2018-11-25T08:15:02.802Z,4.5
2018-11-25T08:20:08.358Z,4.5
2018-11-25T08:25:02.606Z,4.6
2018-11-25T08:30:28.213Z,4.7
2018-11-25T08:35:15.211Z,4.7
2018-11-25T08:40:10.630Z,4.7
2018-11-25T08:45:04.972Z,4.8
2018-11-25T08:50:08.445Z,4.8
2018-11-25T08:55:05.217Z,4.8
2018-11-25T09:00:05.138Z,4.9
2018-11-25T09:05:08.088Z,4.8
2018-11-25T09:10:02.915Z,4.8
2018-11-25T09:15:36.136Z,4.9
2018-11-25T09:20:05.565Z,5
2018-11-25T09:25:05.069Z,5.1
2018-11-25T09:30:30.219Z,5.2
2018-11-25T09:35:02.556Z,5.2
2018-11-25T09:40:05.001Z,5.5
2018-11-25T09:45:10.454Z,5.5
2018-11-25T09:50:33.064Z,2.4
2018-11-25T09:55:02.549Z,5.6
2018-11-25T10:00:30.959Z,5.7
2018-11-25T10:05:33.634Z,5.8
2018-11-25T10:10:02.591Z,5.8
2018-11-25T10:15:10.558Z,6
2018-11-25T10:20:05.556Z,6.1
2018-11-25T10:25:08.430Z,6.2
2018-11-25T10:30:10.475Z,6.3
2018-11-25T10:35:08.290Z,6.4
2018-11-25T10:40:15.791Z,6.4
2018-11-25T10:50:05.401Z,6.7
2018-11-25T10:55:05.743Z,7
2018-11-25T11:00:05.637Z,7.2
2018-11-25T11:05:02.414Z,7.1
2018-11-25T11:10:08.362Z,7.3
2018-11-25T11:15:10.266Z,7.3
2018-11-25T11:20:15.496Z,7.4
2018-11-25T11:25:15.876Z,7.4
2018-11-25T11:30:20.994Z,7.3
2018-11-25T11:35:05.169Z,7.3
2018-11-25T11:45:08.273Z,7.4
2018-11-25T11:50:10.212Z,7.3
2018-11-25T11:55:05.531Z,7.3
2018-11-25T12:00:05.524Z,7.3
2018-11-25T12:05:10.911Z,7.3
2018-11-25T12:10:05.234Z,7.3
2018-11-25T12:15:29.887Z,7.3
2018-11-25T12:20:30.220Z,7.3
2018-11-25T12:25:02.608Z,7.3
2018-11-25T12:30:08.069Z,7.2
2018-11-25T12:35:04.908Z,7.2
2018-11-25T12:40:02.764Z,7.2
2018-11-25T12:45:10.744Z,7.2
2018-11-25T12:50:08.209Z,7.2
2018-11-25T12:55:05.011Z,7.2
2018-11-25T13:00:05.903Z,7.1
2018-11-25T13:05:10.585Z,7.1
2018-11-25T13:10:25.234Z,7
2018-11-25T13:15:02.623Z,7.1
2018-11-25T13:20:05.637Z,7
2018-11-25T13:25:10.060Z,7
2018-11-25T13:30:02.434Z,7
2018-11-25T13:35:03.394Z,7
2018-11-25T13:40:10.798Z,6.9
2018-11-25T13:45:02.511Z,6.9
2018-11-25T13:50:02.877Z,6.9
2018-11-25T13:55:03.259Z,6.8
2018-11-25T14:00:05.170Z,6.7
2018-11-25T14:10:15.323Z,6.7
2018-11-25T14:15:10.685Z,6.6
2018-11-25T14:20:03.120Z,6.6
2018-11-25T14:25:10.176Z,6.5
2018-11-25T14:30:13.261Z,6.5
2018-11-25T14:35:02.959Z,6.5
2018-11-25T14:40:38.182Z,6.5
2018-11-25T14:45:05.017Z,6.4
2018-11-25T14:50:08.387Z,6.4
2018-11-25T14:55:15.293Z,6.3
2018-11-25T15:00:02.905Z,6.3
2018-11-25T15:05:15.962Z,6.3
2018-11-25T15:10:10.809Z,6.3
2018-11-25T15:20:10.035Z,6.3
2018-11-25T15:25:02.789Z,6.3
2018-11-25T15:30:10.779Z,6.3
2018-11-25T15:35:02.696Z,6.3
2018-11-25T15:40:15.398Z,6.2
2018-11-25T15:45:30.842Z,6.2
2018-11-25T15:50:08.238Z,6.2
2018-11-25T15:55:02.554Z,6.2
2018-11-25T16:00:02.873Z,6.3
2018-11-25T16:05:08.349Z,6.3
2018-11-25T16:10:05.898Z,6.3
2018-11-25T16:15:05.232Z,6.3
2018-11-25T16:20:05.330Z,6.3
2018-11-25T16:25:23.386Z,6.2
2018-11-25T16:35:03.031Z,6.2
2018-11-25T16:40:30.762Z,6.2
2018-11-25T16:45:23.356Z,6.1
2018-11-25T16:50:02.773Z,6.1
2018-11-25T16:55:07.646Z,6.1
2018-11-25T17:00:10.799Z,6.1
2018-11-25T17:05:17.737Z,6.1
2018-11-25T17:10:27.910Z,6
2018-11-25T17:15:33.628Z,6
2018-11-25T17:20:10.699Z,6
2018-11-25T17:25:02.411Z,6
2018-11-25T17:30:07.810Z,6
2018-11-25T17:35:08.194Z,6
2018-11-25T17:40:20.713Z,6
2018-11-25T17:45:27.694Z,6
2018-11-25T17:50:05.548Z,6
2018-11-25T18:05:02.799Z,6.1
2018-11-25T18:10:05.181Z,6.1
2018-11-25T18:15:30.935Z,6
2018-11-25T18:20:22.627Z,6
2018-11-25T18:25:07.890Z,6
2018-11-25T18:30:03.351Z,6
2018-11-25T18:35:10.252Z,6
2018-11-25T18:40:20.767Z,6
2018-11-25T18:45:05.010Z,6
2018-11-25T18:50:04.899Z,6
2018-11-25T18:55:05.279Z,6.1
2018-11-25T19:00:15.325Z,6
2018-11-25T19:05:20.804Z,6
2018-11-25T19:10:02.627Z,6
2018-11-25T19:15:05.531Z,6.1
2018-11-25T19:20:07.987Z,6
2018-11-25T19:25:03.285Z,6.1
2018-11-25T19:30:10.221Z,6
2018-11-25T19:35:10.863Z,6
2018-11-25T19:40:05.292Z,6
2018-11-25T19:45:03.154Z,6
2018-11-25T19:55:05.250Z,5.9
2018-11-25T20:00:02.606Z,5.9
2018-11-25T20:05:10.522Z,5.9
2018-11-25T20:10:16.035Z,5.8
2018-11-25T20:15:05.273Z,5.9
2018-11-25T20:20:05.242Z,5.8
2018-11-25T20:25:20.858Z,5.8
2018-11-25T20:30:18.440Z,5.8
2018-11-25T20:35:15.292Z,5.8
2018-11-25T20:40:03.252Z,5.8
2018-11-25T20:45:25.388Z,5.7
2018-11-25T20:50:05.326Z,5.8
2018-11-25T20:55:10.794Z,5.7
2018-11-25T21:00:18.352Z,5.7
2018-11-25T21:05:04.971Z,5.7
2018-11-25T21:10:23.035Z,5.7
2018-11-25T21:15:03.153Z,5.7
2018-11-25T21:20:17.763Z,5.6
2018-11-25T21:25:07.994Z,5.5
2018-11-25T21:30:13.437Z,5.5
2018-11-25T21:35:33.021Z,5.5
2018-11-25T21:40:07.949Z,5.5
2018-11-25T21:45:03.180Z,5.5
2018-11-25T21:50:02.548Z,5.5
2018-11-25T21:55:05.429Z,5.5
2018-11-25T22:00:02.788Z,5.4
2018-11-25T22:05:24.764Z,5.4
2018-11-25T22:10:05.789Z,5.4
2018-11-25T22:15:02.558Z,5.4
2018-11-25T22:20:10.535Z,5.3
2018-11-25T22:25:18.495Z,5.3
2018-11-25T22:30:05.361Z,5.3
2018-11-25T22:35:36.071Z,5.3
2018-11-25T22:40:05.489Z,5.2
2018-11-25T22:45:03.255Z,5.2
2018-11-25T22:50:02.611Z,5.2
2018-11-25T22:55:05.704Z,5.2
2018-11-25T23:00:10.641Z,5.2
2018-11-25T23:05:04.983Z,5.2
2018-11-25T23:10:07.875Z,5.2
2018-11-25T23:15:10.716Z,5.2
2018-11-25T23:20:05.663Z,5.1
2018-11-25T23:25:32.957Z,5.2
2018-11-25T23:30:03.319Z,5.2
2018-11-25T23:40:03.211Z,5.1
2018-11-25T23:45:32.929Z,5.1
2018-11-25T23:55:10.184Z,5
